Time;durP1;ratioP1;P1;durP2;ratioP2;P2;SDS_P1;SDS_P2;PMS_P1;PMS_P2;Temp;Humidity;BMP_temperature;BMP_pressure;BME280_temperature;BME280_humidity;BME280_pressure;Samples;Min_cycle;Max_cycle;Signal;HPM_P1;HPM_P2
2023/04/26 00:01:43;;;;;;;5.53;3.33;;;5.30;99.90;;;;;;5114170;28;20181;-58
2023/04/26 00:04:08;;;;;;;4.25;2.60;;;5.30;99.90;;;;;;5113987;28;20212;-59
2023/04/26 00:06:36;;;;;;;5.03;3.35;;;5.10;99.90;;;;;;5114176;28;20189;-59
2023/04/26 00:09:02;;;;;;;4.90;3.10;;;5.10;99.90;;;;;;5114075;28;20181;-59
2023/04/26 00:11:27;;;;;;;5.43;2.50;;;5.00;99.90;;;;;;5096065;28;20174;-59
2023/04/26 00:13:53;;;;;;;4.68;2.75;;;4.80;99.90;;;;;;5113861;28;20211;-58
2023/04/26 00:16:19;;;;;;;4.70;2.72;;;4.90;99.90;;;;;;5113786;28;20177;-58
2023/04/26 00:18:45;;;;;;;4.80;3.33;;;5.10;99.90;;;;;;5113732;28;20181;-58
2023/04/26 00:21:11;;;;;;;5.18;3.75;;;5.10;99.90;;;;;;5114018;28;20169;-58
2023/04/26 00:23:37;;;;;;;6.78;3.17;;;5.00;99.90;;;;;;5113371;28;20233;-58
2023/04/26 00:26:03;;;;;;;5.82;3.20;;;4.90;99.90;;;;;;5113859;28;20218;-58
2023/04/26 00:28:30;;;;;;;5.45;2.90;;;5.00;99.90;;;;;;5113811;28;20227;-58
2023/04/26 00:30:56;;;;;;;4.50;3.35;;;5.10;99.90;;;;;;5113656;28;20220;-58
2023/04/26 00:33:25;;;;;;;3.78;3.40;;;5.10;99.90;;;;;;5113477;28;20325;-58
2023/04/26 00:35:51;;;;;;;7.35;3.20;;;5.00;99.90;;;;;;5113803;28;20175;-58
2023/04/26 00:38:17;;;;;;;7.00;3.08;;;4.60;99.90;;;;;;5113687;28;20573;-58
2023/04/26 00:40:42;;;;;;;5.88;3.08;;;4.40;99.90;;;;;;5113694;28;20259;-58
2023/04/26 00:43:09;;;;;;;4.38;2.83;;;4.50;99.90;;;;;;5113550;28;20204;-58
2023/04/26 00:45:35;;;;;;;7.97;3.35;;;4.40;99.90;;;;;;5113428;28;20225;-58
2023/04/26 00:48:02;;;;;;;3.65;3.10;;;4.40;99.90;;;;;;5113255;28;20512;-58
2023/04/26 00:50:30;;;;;;;4.70;2.30;;;4.50;99.90;;;;;;5113720;28;20177;-58
2023/04/26 00:52:57;;;;;;;4.47;2.92;;;4.50;99.90;;;;;;5113555;28;20188;-58
2023/04/26 00:55:25;;;;;;;4.47;2.88;;;4.60;99.90;;;;;;5113558;28;20227;-58
2023/04/26 00:57:51;;;;;;;3.92;2.97;;;4.60;99.90;;;;;;5113442;28;20195;-59
2023/04/26 01:00:18;;;;;;;5.33;3.10;;;4.60;99.90;;;;;;5113377;28;20177;-58
2023/04/26 01:02:44;;;;;;;6.35;2.90;;;4.60;99.90;;;;;;5113206;28;20228;-58
2023/04/26 01:05:10;;;;;;;3.88;3.47;;;4.50;99.90;;;;;;5113491;28;20584;-58
2023/04/26 01:07:37;;;;;;;5.00;4.00;;;4.50;99.90;;;;;;5113478;28;20185;-58
2023/04/26 01:10:04;;;;;;;3.70;2.55;;;4.40;99.90;;;;;;5113379;28;20631;-58
2023/04/26 01:12:31;;;;;;;3.72;3.38;;;4.50;99.90;;;;;;5113340;28;20554;-58
2023/04/26 01:14:58;;;;;;;3.67;2.75;;;4.50;99.90;;;;;;5113241;28;20180;-58
2023/04/26 01:17:24;;;;;;;3.08;2.70;;;4.50;99.90;;;;;;5113235;28;20173;-58
2023/04/26 01:19:51;;;;;;;4.10;2.42;;;4.50;99.90;;;;;;5113352;28;20263;-58
2023/04/26 01:22:17;;;;;;;4.35;2.30;;;4.50;99.90;;;;;;5113205;28;20177;-58
2023/04/26 01:24:47;;;;;;;3.95;2.60;;;4.50;99.90;;;;;;5113216;28;20179;-58
2023/04/26 01:27:13;;;;;;;4.75;2.90;;;4.40;99.90;;;;;;5113186;28;20268;-59
2023/04/26 01:29:38;;;;;;;5.65;2.85;;;4.40;99.90;;;;;;5112965;28;20264;-59
2023/04/26 01:32:04;;;;;;;3.90;3.50;;;4.50;99.90;;;;;;5113302;28;20183;-60
2023/04/26 01:34:32;;;;;;;4.82;3.28;;;4.50;99.90;;;;;;5114610;28;20176;-59
2023/04/26 01:36:57;;;;;;;5.50;3.50;;;4.50;99.90;;;;;;5116961;28;20188;-59
2023/04/26 01:39:23;;;;;;;3.53;3.20;;;4.50;99.90;;;;;;5116938;28;20233;-59
2023/04/26 01:41:49;;;;;;;4.82;2.75;;;4.50;99.90;;;;;;5117167;28;20268;-57
2023/04/26 01:44:15;;;;;;;3.58;2.30;;;4.50;99.90;;;;;;5116530;28;20247;-59
2023/04/26 01:46:40;;;;;;;3.85;2.30;;;4.50;99.90;;;;;;5116775;28;20503;-59
2023/04/26 01:49:06;;;;;;;4.32;2.50;;;4.40;99.90;;;;;;5116690;28;20773;-59
2023/04/26 01:51:33;;;;;;;4.53;2.63;;;4.40;99.90;;;;;;5116792;28;20543;-59
2023/04/26 01:53:59;;;;;;;3.97;3.05;;;4.50;99.90;;;;;;5116652;28;20177;-59
2023/04/26 01:56:24;;;;;;;4.38;2.63;;;4.50;99.90;;;;;;5116683;28;20179;-59
2023/04/26 01:58:50;;;;;;;4.53;2.70;;;4.40;99.90;;;;;;5116363;28;20176;-59
2023/04/26 02:01:16;;;;;;;3.85;2.92;;;4.20;99.90;;;;;;5116724;28;20172;-60
2023/04/26 02:03:41;;;;;;;3.90;2.72;;;4.20;99.90;;;;;;5116513;28;20353;-60
2023/04/26 02:06:07;;;;;;;4.38;2.90;;;4.10;99.90;;;;;;5116602;28;20187;-59
2023/04/26 02:08:33;;;;;;;3.65;2.50;;;4.20;99.90;;;;;;5098465;28;20180;-59
2023/04/26 02:10:58;;;;;;;4.40;3.33;;;4.10;99.90;;;;;;5116298;28;20177;-59
2023/04/26 02:13:24;;;;;;;3.53;3.15;;;4.10;99.90;;;;;;5116172;28;20191;-59
2023/04/26 02:15:50;;;;;;;5.25;2.75;;;4.30;99.90;;;;;;5116353;28;20185;-58
2023/04/26 02:18:16;;;;;;;4.00;2.35;;;4.30;99.90;;;;;;5116300;28;20173;-59
2023/04/26 02:20:43;;;;;;;5.13;2.60;;;4.20;99.90;;;;;;5116240;28;20176;-57
2023/04/26 02:23:10;;;;;;;4.22;2.45;;;4.00;99.90;;;;;;5115942;28;20201;-59
2023/04/26 02:25:36;;;;;;;4.07;2.50;;;3.90;99.90;;;;;;5115912;28;20192;-59
2023/04/26 02:28:02;;;;;;;5.40;2.83;;;3.90;99.90;;;;;;5115887;28;20176;-59
2023/04/26 02:30:28;;;;;;;5.35;3.38;;;3.90;99.90;;;;;;5116094;28;20184;-59
2023/04/26 02:32:54;;;;;;;5.47;3.25;;;4.00;99.90;;;;;;5115944;28;20184;-59
2023/04/26 02:35:20;;;;;;;4.97;2.80;;;4.00;99.90;;;;;;5115756;28;20318;-59
2023/04/26 02:37:51;;;;;;;5.72;2.55;;;4.10;99.90;;;;;;5115788;28;20180;-59
2023/04/26 02:40:17;;;;;;;4.85;2.65;;;3.70;99.90;;;;;;5115838;28;20268;-59
2023/04/26 02:42:43;;;;;;;4.90;3.13;;;3.70;99.90;;;;;;5115545;28;20557;-60
2023/04/26 02:45:09;;;;;;;5.32;2.70;;;3.80;99.90;;;;;;5115530;28;20710;-59
2023/04/26 02:47:38;;;;;;;3.70;2.53;;;3.90;99.90;;;;;;5115679;28;20266;-59
2023/04/26 02:50:07;;;;;;;3.70;3.38;;;3.90;99.90;;;;;;5115242;28;20694;-59
2023/04/26 02:52:34;;;;;;;4.03;2.77;;;4.00;99.90;;;;;;5115467;28;20180;-59
2023/04/26 02:55:01;;;;;;;5.85;3.15;;;4.00;99.90;;;;;;5115415;28;20177;-59
2023/04/26 02:57:26;;;;;;;4.23;3.83;;;4.00;99.90;;;;;;5115316;28;20176;-59
2023/04/26 02:59:52;;;;;;;6.97;2.97;;;4.00;99.90;;;;;;5115578;28;20692;-59
2023/04/26 03:02:18;;;;;;;3.47;2.67;;;4.10;99.90;;;;;;5115264;28;20177;-60
2023/04/26 03:04:45;;;;;;;6.40;2.95;;;4.00;99.90;;;;;;5115375;28;20515;-59
2023/04/26 03:07:11;;;;;;;4.55;3.22;;;4.10;99.90;;;;;;5115218;28;20168;-59
2023/04/26 03:09:37;;;;;;;4.50;2.90;;;4.00;99.90;;;;;;5115035;28;20581;-59
2023/04/26 03:12:07;;;;;;;4.30;2.95;;;3.90;99.90;;;;;;5115241;28;20177;-60
2023/04/26 03:14:33;;;;;;;5.90;3.40;;;4.00;99.90;;;;;;5115231;28;20180;-59
2023/04/26 03:16:59;;;;;;;5.35;3.03;;;4.00;99.90;;;;;;5115145;28;20635;-59
2023/04/26 03:19:26;;;;;;;6.53;2.90;;;4.00;99.90;;;;;;5115048;28;20172;-59
2023/04/26 03:21:52;;;;;;;4.95;3.20;;;3.90;99.90;;;;;;5114875;28;20181;-59
2023/04/26 03:24:17;;;;;;;6.78;3.35;;;3.80;99.90;;;;;;5114677;28;20231;-59
2023/04/26 03:26:43;;;;;;;5.20;3.65;;;3.70;99.90;;;;;;5114934;28;20592;-59
2023/04/26 03:29:09;;;;;;;4.53;2.83;;;3.70;99.90;;;;;;5114900;28;20176;-59
2023/04/26 03:31:35;;;;;;;4.50;3.08;;;3.80;99.90;;;;;;5114701;28;20176;-59
2023/04/26 03:34:00;;;;;;;4.95;3.50;;;3.90;99.90;;;;;;5096284;28;20271;-59
2023/04/26 03:36:27;;;;;;;5.82;2.78;;;3.90;99.90;;;;;;5114564;28;20184;-59
2023/04/26 03:38:53;;;;;;;6.25;3.22;;;3.90;99.90;;;;;;5114403;28;20184;-59
2023/04/26 03:41:19;;;;;;;4.47;3.08;;;3.80;99.90;;;;;;5096510;28;20184;-59
2023/04/26 03:43:45;;;;;;;5.47;3.38;;;3.90;99.90;;;;;;5114533;28;20662;-59
2023/04/26 03:46:11;;;;;;;6.15;3.30;;;3.90;99.90;;;;;;5114531;28;20183;-59
2023/04/26 03:48:37;;;;;;;6.77;3.50;;;3.90;99.90;;;;;;5114412;28;20243;-59
2023/04/26 03:51:02;;;;;;;5.03;3.45;;;4.00;99.90;;;;;;5114306;28;20175;-59
2023/04/26 03:53:31;;;;;;;4.80;3.57;;;3.90;99.90;;;;;;5114248;28;20233;-59
2023/04/26 03:55:57;;;;;;;6.30;3.47;;;4.00;99.90;;;;;;5114406;28;20577;-59
2023/04/26 03:58:25;;;;;;;5.18;3.45;;;4.00;99.90;;;;;;5113482;28;20173;-59
2023/04/26 04:00:51;;;;;;;7.32;3.67;;;4.00;99.90;;;;;;5114420;28;20181;-59
2023/04/26 04:03:17;;;;;;;5.57;3.30;;;4.00;99.90;;;;;;5114108;28;20200;-59
2023/04/26 04:05:43;;;;;;;5.85;3.40;;;3.90;99.90;;;;;;5114025;28;20185;-59
2023/04/26 04:08:08;;;;;;;6.73;3.60;;;3.90;99.90;;;;;;5113966;28;20188;-59
2023/04/26 04:10:36;;;;;;;6.75;3.35;;;4.00;99.90;;;;;;5114311;28;20275;-59
2023/04/26 04:13:02;;;;;;;4.55;3.72;;;3.90;99.90;;;;;;5114139;28;20177;-59
2023/04/26 04:15:28;;;;;;;5.05;3.33;;;3.90;99.90;;;;;;5113903;28;20306;-59
2023/04/26 04:17:54;;;;;;;6.75;3.65;;;3.90;99.90;;;;;;5113811;28;20268;-59
2023/04/26 04:20:21;;;;;;;6.40;3.53;;;3.90;99.90;;;;;;5113765;28;20177;-59
2023/04/26 04:22:46;;;;;;;4.97;3.10;;;3.80;99.90;;;;;;5113529;28;20198;-59
2023/04/26 04:25:12;;;;;;;5.15;4.65;;;3.70;99.90;;;;;;5113184;28;20241;-59
2023/04/26 04:27:41;;;;;;;4.65;3.03;;;3.80;99.90;;;;;;5113773;28;20701;-59
2023/04/26 04:30:08;;;;;;;7.07;4.47;;;3.90;99.90;;;;;;5113740;28;20180;-59
2023/04/26 04:32:34;;;;;;;6.05;3.35;;;4.00;99.90;;;;;;5113896;28;20704;-59
2023/04/26 04:35:00;;;;;;;6.18;3.80;;;4.00;99.90;;;;;;5113709;28;20175;-59
2023/04/26 04:37:27;;;;;;;6.03;3.40;;;4.00;99.90;;;;;;5113771;28;20211;-59
2023/04/26 04:39:53;;;;;;;5.60;3.38;;;4.10;99.90;;;;;;5113750;28;20184;-59
2023/04/26 04:42:19;;;;;;;7.30;3.58;;;4.00;99.90;;;;;;5113529;28;20204;-59
2023/04/26 04:44:45;;;;;;;6.20;3.28;;;4.00;99.90;;;;;;5113647;28;20216;-59
2023/04/26 04:47:11;;;;;;;6.13;4.07;;;4.10;99.90;;;;;;5113541;28;20187;-58
2023/04/26 04:49:37;;;;;;;6.80;3.83;;;4.10;99.90;;;;;;5113641;28;20235;-58
2023/04/26 04:52:03;;;;;;;5.40;4.05;;;4.10;99.90;;;;;;5113682;28;20183;-59
2023/04/26 04:54:29;;;;;;;4.53;3.83;;;4.10;99.90;;;;;;5113871;28;20168;-59
2023/04/26 04:56:56;;;;;;;5.93;4.28;;;4.10;99.90;;;;;;5113434;28;20179;-59
2023/04/26 04:59:22;;;;;;;7.80;4.17;;;4.20;99.90;;;;;;5113460;28;20245;-59
2023/04/26 05:01:49;;;;;;;8.75;3.88;;;4.10;99.90;;;;;;5113451;28;20200;-59
2023/04/26 05:04:15;;;;;;;6.10;4.15;;;4.10;99.90;;;;;;5113177;28;20742;-60
2023/04/26 05:06:41;;;;;;;6.20;3.97;;;4.00;99.90;;;;;;5113576;28;20263;-58
2023/04/26 05:09:08;;;;;;;7.80;4.45;;;4.10;99.90;;;;;;5116153;28;20523;-58
2023/04/26 05:11:33;;;;;;;6.80;4.35;;;4.20;99.90;;;;;;5117563;28;20185;-57
2023/04/26 05:13:59;;;;;;;7.38;4.88;;;4.30;99.90;;;;;;5117455;28;20202;-59
2023/04/26 05:16:25;;;;;;;8.73;4.07;;;4.30;99.90;;;;;;5117467;28;20270;-57
2023/04/26 05:18:50;;;;;;;6.30;4.10;;;4.40;99.90;;;;;;5117223;28;20196;-58
2023/04/26 05:21:16;;;;;;;6.15;5.30;;;4.40;99.90;;;;;;5117230;28;20176;-58
2023/04/26 05:23:42;;;;;;;9.65;4.50;;;4.40;99.90;;;;;;5117348;28;20196;-58
2023/04/26 05:26:14;;;;;;;9.07;4.95;;;4.30;99.90;;;;;;5117372;28;20666;-58
2023/04/26 05:28:40;;;;;;;7.53;4.63;;;4.30;99.90;;;;;;5117113;28;20217;-59
2023/04/26 05:31:06;;;;;;;7.95;4.53;;;4.30;99.90;;;;;;5117038;28;20650;-57
2023/04/26 05:33:31;;;;;;;6.70;4.50;;;4.30;99.90;;;;;;5116919;28;20181;-58
2023/04/26 05:35:57;;;;;;;7.05;5.63;;;4.50;99.90;;;;;;5117193;28;20181;-57
2023/04/26 05:38:23;;;;;;;7.45;5.78;;;4.70;99.90;;;;;;5117111;28;20183;-57
2023/04/26 05:40:49;;;;;;;9.50;5.43;;;4.80;99.90;;;;;;5116979;28;20188;-59
2023/04/26 05:43:15;;;;;;;8.98;5.07;;;4.90;99.90;;;;;;5116812;28;20693;-58
2023/04/26 05:45:52;;;;;;;8.10;4.72;;;4.90;99.90;;;;;;5116765;28;20317;-59
2023/04/26 05:48:20;;;;;;;8.18;6.65;;;4.90;99.90;;;;;;5116222;28;20582;-58
2023/04/26 05:50:46;;;;;;;7.70;4.88;;;5.10;99.90;;;;;;5116395;28;20168;-59
2023/04/26 05:53:11;;;;;;;10.27;6.05;;;5.20;99.90;;;;;;5097916;28;20180;-58
2023/04/26 05:55:37;;;;;;;8.70;5.72;;;5.30;99.90;;;;;;5097916;28;20715;-62
2023/04/26 05:58:04;;;;;;;9.00;6.95;;;5.40;99.90;;;;;;5116104;28;20201;-58
2023/04/26 06:00:30;;;;;;;10.60;6.07;;;5.50;99.90;;;;;;5115962;28;20585;-60
2023/04/26 06:02:56;;;;;;;8.23;5.53;;;5.60;99.90;;;;;;5116041;28;20296;-60
2023/04/26 06:05:21;;;;;;;11.27;8.02;;;5.70;99.90;;;;;;5116173;28;20177;-58
2023/04/26 06:07:47;;;;;;;12.15;6.30;;;5.80;99.90;;;;;;5097592;28;20219;-58
2023/04/26 06:10:13;;;;;;;10.77;6.68;;;5.80;99.90;;;;;;5115897;28;20200;-58
2023/04/26 06:12:38;;;;;;;9.25;8.05;;;5.80;99.90;;;;;;5115754;28;20187;-59
2023/04/26 06:15:05;;;;;;;9.68;7.88;;;6.00;99.90;;;;;;5115766;28;20200;-58
2023/04/26 06:17:30;;;;;;;13.15;6.30;;;6.10;99.90;;;;;;5115524;28;20719;-59
2023/04/26 06:19:56;;;;;;;10.52;6.03;;;6.10;99.90;;;;;;5115064;28;20257;-59
2023/04/26 06:22:22;;;;;;;9.52;5.97;;;6.10;99.90;;;;;;5097358;28;20635;-60
2023/04/26 06:24:47;;;;;;;7.50;5.85;;;6.20;99.90;;;;;;5097291;28;20188;-58
2023/04/26 06:27:13;;;;;;;10.95;6.32;;;6.30;99.90;;;;;;5097451;28;20170;-57
2023/04/26 06:29:39;;;;;;;8.27;5.53;;;6.40;99.90;;;;;;5115519;28;20636;-60
2023/04/26 06:32:05;;;;;;;9.90;6.65;;;6.40;99.90;;;;;;5115482;28;20605;-59
2023/04/26 06:34:30;;;;;;;11.25;6.20;;;6.50;99.90;;;;;;5115261;28;20184;-60
2023/04/26 06:36:56;;;;;;;7.20;5.57;;;6.60;99.90;;;;;;5097081;28;20661;-58
2023/04/26 06:39:22;;;;;;;8.45;5.53;;;6.60;99.90;;;;;;5096930;28;20728;-59
2023/04/26 06:41:47;;;;;;;9.13;5.50;;;6.60;99.90;;;;;;5115368;28;20180;-58
2023/04/26 06:44:13;;;;;;;7.80;5.60;;;6.70;99.90;;;;;;5115313;28;20212;-59
2023/04/26 06:46:39;;;;;;;9.32;6.90;;;6.70;99.90;;;;;;5114989;28;20184;-59
2023/04/26 06:49:04;;;;;;;8.18;6.72;;;6.80;99.90;;;;;;5096929;28;20581;-58
2023/04/26 06:51:30;;;;;;;11.32;7.75;;;6.80;99.90;;;;;;5115255;28;20181;-58
2023/04/26 06:53:57;;;;;;;8.60;7.20;;;6.80;99.90;;;;;;5115039;28;20272;-58
2023/04/26 06:56:23;;;;;;;10.48;7.22;;;6.80;99.90;;;;;;5114901;28;20182;-58
2023/04/26 06:59:03;;;;;;;10.23;7.32;;;7.00;99.90;;;;;;5114744;28;20268;-59
2023/04/26 07:01:32;;;;;;;10.27;5.97;;;7.20;99.90;;;;;;5114786;28;20244;-59
2023/04/26 07:04:02;;;;;;;7.68;6.63;;;7.30;99.90;;;;;;5114655;28;20216;-59
2023/04/26 07:06:28;;;;;;;8.18;6.25;;;7.50;99.90;;;;;;5114827;28;20173;-59
2023/04/26 07:08:54;;;;;;;7.82;6.00;;;7.60;99.90;;;;;;5114690;28;20227;-58
2023/04/26 07:11:20;;;;;;;9.63;6.60;;;7.60;99.90;;;;;;5114505;28;20632;-57
2023/04/26 07:13:46;;;;;;;8.80;6.75;;;7.80;99.90;;;;;;5114365;28;20484;-58
2023/04/26 07:16:12;;;;;;;9.27;6.32;;;7.80;99.90;;;;;;5114585;28;20184;-60
2023/04/26 07:18:39;;;;;;;8.85;6.80;;;7.80;99.90;;;;;;5114495;28;20547;-58
2023/04/26 07:21:05;;;;;;;7.95;6.30;;;8.00;99.90;;;;;;5114484;28;20169;-58
2023/04/26 07:23:31;;;;;;;8.65;6.35;;;8.00;99.90;;;;;;5114506;28;20201;-57
2023/04/26 07:25:57;;;;;;;11.23;6.88;;;8.00;99.90;;;;;;5114305;28;20484;-58
2023/04/26 07:28:22;;;;;;;8.77;6.03;;;8.10;99.90;;;;;;5114373;28;20218;-58
2023/04/26 07:30:48;;;;;;;8.13;5.55;;;8.10;99.90;;;;;;5114224;28;20226;-58
2023/04/26 07:33:14;;;;;;;7.57;5.55;;;8.40;99.90;;;;;;5113119;28;20181;-58
2023/04/26 07:35:39;;;;;;;7.07;5.63;;;8.50;99.90;;;;;;5114270;28;20176;-58
2023/04/26 07:38:06;;;;;;;9.32;5.93;;;8.50;99.90;;;;;;5114085;28;20197;-58
2023/04/26 07:40:31;;;;;;;7.65;5.60;;;8.40;99.90;;;;;;5113930;28;20177;-58
2023/04/26 07:42:57;;;;;;;8.80;6.28;;;8.50;99.90;;;;;;5113798;28;20224;-58
2023/04/26 07:45:23;;;;;;;8.07;5.90;;;8.60;99.90;;;;;;5114159;28;20181;-58
2023/04/26 07:47:49;;;;;;;6.60;5.57;;;8.70;99.90;;;;;;5114214;28;20708;-58
2023/04/26 07:50:14;;;;;;;9.50;5.78;;;8.80;99.90;;;;;;5113878;28;20228;-58
2023/04/26 07:52:42;;;;;;;8.88;5.28;;;8.90;99.90;;;;;;5113798;28;20213;-58
2023/04/26 07:55:08;;;;;;;7.15;5.00;;;9.00;99.90;;;;;;5113729;28;20588;-58
2023/04/26 07:57:34;;;;;;;7.68;5.32;;;9.00;99.90;;;;;;5113577;28;20169;-58
2023/04/26 07:59:59;;;;;;;6.90;5.25;;;9.00;99.90;;;;;;5113858;28;20252;-58
2023/04/26 08:02:25;;;;;;;6.43;5.32;;;9.10;99.90;;;;;;5113748;28;20539;-58
2023/04/26 08:04:54;;;;;;;7.18;5.45;;;9.20;99.90;;;;;;5113645;28;20218;-58
2023/04/26 08:07:20;;;;;;;6.25;5.05;;;9.30;99.90;;;;;;5113621;28;20176;-58
2023/04/26 08:09:47;;;;;;;6.38;4.95;;;9.40;99.90;;;;;;5113515;28;20429;-58
2023/04/26 08:12:14;;;;;;;7.47;5.32;;;9.50;99.90;;;;;;5113359;28;20177;-58
2023/04/26 08:14:39;;;;;;;6.78;5.30;;;9.60;99.90;;;;;;5113552;28;20184;-58
2023/04/26 08:17:07;;;;;;;7.22;4.68;;;9.60;99.90;;;;;;5113472;28;20173;-58
2023/04/26 08:19:33;;;;;;;6.80;4.80;;;9.60;99.90;;;;;;5113435;28;20177;-58
2023/04/26 08:21:58;;;;;;;4.13;3.72;;;9.40;99.90;;;;;;5113387;28;20540;-58
2023/04/26 08:24:24;;;;;;;5.28;3.50;;;9.70;99.90;;;;;;5113165;28;20216;-58
2023/04/26 08:26:50;;;;;;;4.25;2.72;;;10.00;99.90;;;;;;5113395;28;20173;-58
2023/04/26 08:29:16;;;;;;;2.95;1.98;;;10.20;99.90;;;;;;5113461;28;20172;-58
2023/04/26 08:31:41;;;;;;;4.57;3.08;;;10.30;99.90;;;;;;5095151;28;20639;-58
2023/04/26 08:34:12;;;;;;;4.65;2.92;;;10.40;99.90;;;;;;5113253;28;20184;-58
2023/04/26 08:36:38;;;;;;;3.67;2.60;;;10.70;99.90;;;;;;5113124;28;20534;-58
2023/04/26 08:39:04;;;;;;;2.88;2.40;;;10.80;99.90;;;;;;5113376;28;20173;-59
2023/04/26 08:41:36;;;;;;;3.65;2.20;;;11.00;99.90;;;;;;5113249;28;20269;-58
2023/04/26 08:44:04;;;;;;;2.78;2.00;;;10.90;99.90;;;;;;5112786;28;20280;-58
2023/04/26 08:46:42;;;;;;;2.88;1.80;;;10.90;99.90;;;;;;5113043;28;20604;-58
2023/04/26 08:49:28;;;;;;;3.80;2.00;;;11.10;99.90;;;;;;5112772;28;20262;-58
2023/04/26 08:51:56;;;;;;;1.75;1.63;;;11.10;99.90;;;;;;5095879;28;20188;-58
2023/04/26 08:54:22;;;;;;;3.05;1.65;;;10.70;99.90;;;;;;5113073;28;20204;-58
2023/04/26 08:56:48;;;;;;;3.10;1.65;;;10.90;99.90;;;;;;5112952;28;20219;-58
2023/04/26 08:59:14;;;;;;;3.30;1.75;;;11.10;99.90;;;;;;5112847;28;20264;-58
2023/04/26 09:01:42;;;;;;;3.25;1.70;;;11.30;99.90;;;;;;5112861;28;20708;-58
2023/04/26 09:04:08;;;;;;;2.13;1.40;;;11.20;99.90;;;;;;5112798;28;20216;-58
2023/04/26 09:06:35;;;;;;;2.05;1.85;;;11.20;99.90;;;;;;5112815;28;20177;-58
2023/04/26 09:09:06;;;;;;;2.53;1.80;;;11.20;99.90;;;;;;5112898;28;20674;-58
2023/04/26 09:11:54;;;;;;;2.00;1.50;;;11.40;99.90;;;;;;5113030;28;20199;-58
2023/04/26 09:14:20;;;;;;;2.90;1.80;;;11.20;99.90;;;;;;5112976;28;20182;-58
2023/04/26 09:16:46;;;;;;;4.60;1.92;;;11.20;99.90;;;;;;5112679;28;20192;-58
2023/04/26 09:19:11;;;;;;;2.22;1.67;;;11.20;99.90;;;;;;5112920;28;20628;-58
2023/04/26 09:21:45;;;;;;;3.25;1.75;;;11.40;99.90;;;;;;5112810;28;20177;-58
2023/04/26 09:24:11;;;;;;;1.70;1.55;;;11.50;99.90;;;;;;5112665;28;20273;-58
2023/04/26 09:26:37;;;;;;;3.63;1.85;;;11.50;99.90;;;;;;5112729;28;20180;-58
2023/04/26 09:29:14;;;;;;;3.88;2.20;;;11.60;99.90;;;;;;5112504;28;20189;-58
2023/04/26 09:31:45;;;;;;;3.33;2.13;;;11.70;99.90;;;;;;5112663;28;20623;-58
2023/04/26 09:34:12;;;;;;;3.50;2.53;;;11.70;99.90;;;;;;5112644;28;20258;-58
2023/04/26 09:36:47;;;;;;;5.35;2.42;;;11.90;99.90;;;;;;5112670;28;20225;-58
2023/04/26 09:39:13;;;;;;;5.82;3.17;;;12.10;99.90;;;;;;5112473;28;20177;-58
2023/04/26 09:41:43;;;;;;;4.05;2.90;;;12.20;99.90;;;;;;5112421;28;20173;-58
2023/04/26 09:44:22;;;;;;;4.07;2.90;;;12.40;99.90;;;;;;5112616;28;20208;-58
2023/04/26 09:47:17;;;;;;;3.30;2.63;;;12.50;99.90;;;;;;5112571;28;20169;-58
2023/04/26 09:49:44;;;;;;;4.22;3.10;;;12.80;99.90;;;;;;5090389;28;20252;-58
2023/04/26 09:52:10;;;;;;;3.20;2.90;;;12.90;99.90;;;;;;5112358;28;20174;-58
2023/04/26 09:54:40;;;;;;;3.97;2.85;;;12.90;99.90;;;;;;5112484;28;20499;-58
2023/04/26 09:57:06;;;;;;;5.07;2.83;;;12.90;99.90;;;;;;5116193;28;20529;-58
2023/04/26 09:59:43;;;;;;;3.70;2.78;;;12.80;99.90;;;;;;5116299;28;20206;-58
2023/04/26 10:02:15;;;;;;;5.13;3.33;;;12.30;98.20;;;;;;5116047;28;20177;-58
2023/04/26 10:04:46;;;;;;;3.78;3.38;;;12.50;99.90;;;;;;5115833;28;20280;-58
2023/04/26 10:07:13;;;;;;;4.82;3.63;;;12.60;99.90;;;;;;5116214;28;20173;-58
2023/04/26 10:09:40;;;;;;;4.18;3.22;;;12.20;99.00;;;;;;5116018;28;20218;-58
2023/04/26 10:12:15;;;;;;;3.28;2.90;;;12.10;99.80;;;;;;5115874;28;20185;-58
2023/04/26 10:14:43;;;;;;;4.57;3.50;;;12.10;99.90;;;;;;5115777;28;20183;-58
2023/04/26 10:17:10;;;;;;;4.90;3.63;;;12.20;99.90;;;;;;5115602;28;20181;-58
2023/04/26 10:19:40;;;;;;;4.80;3.53;;;12.40;99.60;;;;;;5115716;28;20177;-58
2023/04/26 10:22:27;;;;;;;3.70;3.25;;;12.30;96.50;;;;;;5115734;28;20173;-58
2023/04/26 10:24:54;;;;;;;4.03;3.20;;;12.30;99.60;;;;;;5115420;28;20201;-58
2023/04/26 10:27:43;;;;;;;4.45;3.40;;;12.30;99.90;;;;;;5115558;28;20173;-58
2023/04/26 10:30:12;;;;;;;4.43;3.50;;;12.30;98.50;;;;;;5100092;28;20200;-58
2023/04/26 10:33:07;;;;;;;5.07;3.38;;;12.30;99.40;;;;;;5115523;28;20172;-58
2023/04/26 10:35:36;;;;;;;4.25;3.85;;;11.60;96.00;;;;;;5105778;28;20272;-58
2023/04/26 10:38:05;;;;;;;5.10;3.60;;;11.50;99.30;;;;;;5115150;28;20334;-58
2023/04/26 10:40:39;;;;;;;5.75;4.00;;;11.30;99.10;;;;;;5097059;28;20173;-58
2023/04/26 10:43:12;;;;;;;5.20;3.92;;;11.30;99.90;;;;;;5115272;28;20678;-58
2023/04/26 10:45:42;;;;;;;5.35;4.25;;;11.30;99.90;;;;;;5115247;28;20218;-58
2023/04/26 10:48:18;;;;;;;5.78;4.38;;;11.10;99.90;;;;;;5114974;28;20188;-58
2023/04/26 10:51:07;;;;;;;4.82;4.07;;;11.10;99.90;;;;;;5115282;28;20169;-58
2023/04/26 10:53:45;;;;;;;6.22;4.35;;;11.10;99.90;;;;;;5115239;28;20215;-59
2023/04/26 10:56:31;;;;;;;4.85;4.20;;;10.90;99.90;;;;;;5115008;28;20573;-59
2023/04/26 10:59:18;;;;;;;5.40;4.50;;;11.00;99.90;;;;;;5113090;28;20288;-59
2023/04/26 11:01:44;;;;;;;4.68;4.18;;;11.20;99.90;;;;;;5115211;28;20696;-57
2023/04/26 11:04:11;;;;;;;6.18;4.40;;;11.30;99.90;;;;;;5114988;28;20205;-59
2023/04/26 11:06:50;;;;;;;6.38;4.97;;;11.30;99.90;;;;;;5114729;28;20642;-58
2023/04/26 11:09:47;;;;;;;5.85;4.20;;;11.40;99.50;;;;;;5114655;28;20169;-59
2023/04/26 11:12:14;;;;;;;8.77;5.05;;;11.70;99.90;;;;;;5114848;28;20168;-59
2023/04/26 11:14:47;;;;;;;5.38;4.43;;;11.70;99.00;;;;;;5114660;28;20177;-59
2023/04/26 11:17:13;;;;;;;5.57;4.88;;;11.80;99.90;;;;;;5114739;28;20248;-59
2023/04/26 11:19:40;;;;;;;6.60;5.18;;;12.20;99.90;;;;;;5114389;28;20272;-59
2023/04/26 11:22:07;;;;;;;6.13;5.18;;;12.20;97.90;;;;;;5114674;28;20178;-58
2023/04/26 11:24:40;;;;;;;6.88;5.85;;;12.30;98.90;;;;;;5114325;28;20292;-58
2023/04/26 11:27:09;;;;;;;7.30;4.95;;;12.40;98.50;;;;;;5114352;28;20658;-58
2023/04/26 11:29:35;;;;;;;6.90;5.18;;;12.70;96.50;;;;;;5114359;28;20574;-58
2023/04/26 11:32:01;;;;;;;5.85;4.93;;;13.10;99.30;;;;;;5114087;28;20170;-58
2023/04/26 11:34:31;;;;;;;5.18;4.68;;;13.20;95.00;;;;;;5114103;28;20181;-57
2023/04/26 11:36:57;;;;;;;6.72;5.68;;;13.30;96.80;;;;;;5114351;28;20513;-57
2023/04/26 11:39:22;;;;;;;6.65;5.95;;;13.60;96.60;;;;;;5114230;28;20176;-60
2023/04/26 11:41:48;;;;;;;7.22;6.03;;;13.50;95.50;;;;;;5114090;28;20173;-59
2023/04/26 11:44:18;;;;;;;7.32;6.43;;;13.30;96.50;;;;;;5113950;28;20684;-59
2023/04/26 11:46:48;;;;;;;7.30;6.13;;;13.50;96.60;;;;;;5113814;28;20180;-59
2023/04/26 11:49:16;;;;;;;6.85;5.60;;;13.70;95.70;;;;;;5114164;28;20229;-57
2023/04/26 11:51:42;;;;;;;6.47;5.82;;;13.80;97.20;;;;;;5113984;28;20246;-60
2023/04/26 11:54:07;;;;;;;6.35;5.75;;;13.70;95.30;;;;;;5113942;28;20187;-58
2023/04/26 11:56:33;;;;;;;6.60;5.80;;;13.50;93.60;;;;;;5113827;28;20260;-58
2023/04/26 11:58:59;;;;;;;6.75;6.05;;;13.00;94.80;;;;;;5113634;28;20639;-60
2023/04/26 12:01:30;;;;;;;5.93;5.30;;;13.00;94.00;;;;;;5113662;28;20167;-59
2023/04/26 12:03:59;;;;;;;6.82;6.13;;;12.90;94.10;;;;;;5095521;28;20751;-58
2023/04/26 12:06:41;;;;;;;7.28;6.47;;;12.60;94.60;;;;;;5113739;28;20562;-58
2023/04/26 12:09:10;;;;;;;7.75;6.38;;;12.70;95.00;;;;;;5113684;28;20173;-58
2023/04/26 12:11:36;;;;;;;6.88;5.50;;;12.20;92.40;;;;;;5113541;28;20173;-59
2023/04/26 12:14:02;;;;;;;6.53;5.85;;;12.00;92.80;;;;;;5113497;28;21045;-58
2023/04/26 12:16:28;;;;;;;6.60;5.97;;;12.00;95.90;;;;;;5113632;28;20169;-58
2023/04/26 12:18:57;;;;;;;6.85;6.15;;;12.10;94.80;;;;;;5113072;28;20173;-58
2023/04/26 12:21:23;;;;;;;6.93;5.88;;;12.20;95.30;;;;;;5113452;28;20178;-58
2023/04/26 12:23:49;;;;;;;6.85;6.15;;;12.30;95.10;;;;;;5113294;28;20208;-58
2023/04/26 12:26:16;;;;;;;7.00;6.32;;;12.40;95.00;;;;;;5113418;28;20175;-58
2023/04/26 12:28:42;;;;;;;7.10;6.00;;;12.40;94.20;;;;;;5113189;28;20169;-58
2023/04/26 12:31:08;;;;;;;6.72;5.43;;;12.60;95.60;;;;;;5113718;28;20165;-58
2023/04/26 12:33:34;;;;;;;6.93;6.13;;;12.80;95.50;;;;;;5113372;28;20180;-58
2023/04/26 12:36:11;;;;;;;8.50;5.68;;;13.10;95.10;;;;;;5113293;28;20161;-58
2023/04/26 12:38:38;;;;;;;8.35;6.00;;;13.50;94.00;;;;;;5113456;28;20542;-58
2023/04/26 12:41:04;;;;;;;6.88;5.72;;;13.70;93.00;;;;;;5113036;28;20193;-58
2023/04/26 12:43:29;;;;;;;6.70;5.97;;;13.80;94.40;;;;;;5113278;28;20209;-58
2023/04/26 12:45:55;;;;;;;6.82;5.60;;;13.80;93.50;;;;;;5113163;28;20176;-58
2023/04/26 12:48:21;;;;;;;8.30;6.65;;;13.80;93.70;;;;;;5113143;28;20229;-58
2023/04/26 12:50:47;;;;;;;7.95;7.15;;;14.00;91.70;;;;;;5113014;28;20165;-58
2023/04/26 12:53:12;;;;;;;9.38;7.43;;;13.80;93.40;;;;;;5113042;28;20667;-58
2023/04/26 12:55:39;;;;;;;8.30;7.47;;;13.70;94.20;;;;;;5112777;28;20628;-59